TimeMST,TemperatureF,Dew PointF,Humidity,Sea Level PressureIn,VisibilityMPH,Wind Direction,Wind SpeedMPH,Gust SpeedMPH,PrecipitationIn,Events,Conditions,WindDirDegrees,DateUTC
12:53 AM,80.1,55.0,42,29.86,10.0,SSW,3.5,-,N/A,,Clear,210,2013-07-14 07:53:00
1:53 AM,80.1,51.1,36,29.86,10.0,South,5.8,-,N/A,,Clear,190,2013-07-14 08:53:00
2:53 AM,78.1,52.0,40,29.86,10.0,SW,5.8,-,N/A,,Clear,230,2013-07-14 09:53:00
3:53 AM,77.0,53.1,43,29.87,10.0,SSW,3.5,-,N/A,,Clear,210,2013-07-14 10:53:00
4:53 AM,77.0,54.0,45,29.89,10.0,West,3.5,-,N/A,,Clear,260,2013-07-14 11:53:00
5:53 AM,77.0,55.0,47,29.91,10.0,WSW,3.5,-,N/A,,Clear,240,2013-07-14 12:53:00
6:53 AM,77.0,55.9,48,29.92,10.0,Calm,Calm,-,N/A,,Clear,0,2013-07-14 13:53:00
7:53 AM,78.1,55.9,46,29.92,10.0,Calm,Calm,-,N/A,,Clear,0,2013-07-14 14:53:00
8:53 AM,84.9,53.1,33,29.91,10.0,NNE,3.5,-,N/A,,Clear,20,2013-07-14 15:53:00
9:53 AM,86.0,52.0,31,29.90,10.0,North,4.6,-,N/A,,Clear,360,2013-07-14 16:53:00
10:53 AM,90.0,51.1,26,29.88,10.0,Variable,3.5,-,N/A,,Clear,0,2013-07-14 17:53:00
11:53 AM,91.0,50.0,24,29.86,10.0,Calm,Calm,-,N/A,,Clear,0,2013-07-14 18:53:00
12:53 PM,95.0,46.9,19,29.83,10.0,Variable,6.9,-,N/A,,Clear,0,2013-07-14 19:53:00
1:53 PM,95.0,46.0,19,29.80,10.0,Calm,Calm,-,N/A,,Clear,0,2013-07-14 20:53:00
2:53 PM,97.0,43.0,16,29.77,10.0,Variable,4.6,-,N/A,,Clear,0,2013-07-14 21:53:00
3:53 PM,97.0,45.0,17,29.75,10.0,WNW,10.4,18.4,N/A,,Partly Cloudy,300,2013-07-14 22:53:00
4:53 PM,95.0,48.0,20,29.75,10.0,WNW,8.1,19.6,N/A,,Clear,290,2013-07-14 23:53:00
5:53 PM,93.9,48.9,21,29.75,10.0,WNW,10.4,19.6,N/A,,Clear,290,2013-07-15 00:53:00
6:53 PM,93.0,48.0,21,29.76,10.0,NW,6.9,-,N/A,,Clear,320,2013-07-15 01:53:00
7:53 PM,91.9,50.0,24,29.77,10.0,North,8.1,-,N/A,,Clear,360,2013-07-15 02:53:00
8:53 PM,90.0,46.9,23,29.78,10.0,NNW,6.9,-,N/A,,Clear,340,2013-07-15 03:53:00
9:53 PM,88.0,48.9,26,29.79,10.0,WNW,3.5,-,N/A,,Clear,300,2013-07-15 04:53:00
10:53 PM,87.1,50.0,28,29.78,10.0,WSW,3.5,-,N/A,,Scattered Clouds,250,2013-07-15 05:53:00
11:53 PM,86.0,51.1,30,29.79,10.0,Calm,Calm,-,N/A,,Clear,0,2013-07-15 06:53:00